This is the latest recevied weather packets stored in our database for station/object KB3KAV. If no packets are shown the sender has not sent any weather packets the latest 10 day(s).
| Time | Temp. | Humidity | Pressure | Rain* | Wind** | Luminosity | Snow |
|---|---|---|---|---|---|---|---|
| 1787707817 | 15° C | 95% | 1047.5 hPa | 0 mm | - | 0 W/m² | - |
| 1787707212 | 15° C | 95% | 1047.6 hPa | 0 mm | - | 0 W/m² | - |
| 1787706613 | 15° C | 95% | 1047.4 hPa | 0 mm | - | 0 W/m² | - |
| 1787706009 | 15.56° C | 95% | 1047.2 hPa | 0 mm | - | 0 W/m² | - |
| 1787705405 | 15.56° C | 95% | 1047 hPa | 0 mm | - | 0 W/m² | - |
| 1787704802 | 15.56° C | 94% | 1047 hPa | 0 mm | - | 0 W/m² | - |
| 1787704198 | 16.11° C | 94% | 1047 hPa | 0 mm | - | 0 W/m² | - |
| 1787703594 | 16.11° C | 93% | 1046.8 hPa | 0 mm | - | 0 W/m² | - |
| 1787702989 | 16.67° C | 93% | 1046.6 hPa | 0 mm | - | 0 W/m² | - |
| 1787702385 | 16.67° C | 92% | 1046.4 hPa | 0 mm | - | 0 W/m² | - |
| 1787701782 | 17.22° C | 91% | 1046.2 hPa | 0 mm | - | 0 W/m² | - |
| 1787701183 | 17.78° C | 90% | 1046 hPa | 0 mm | - | 5 W/m² | - |
| 1787700581 | 18.33° C | 87% | 1045.9 hPa | 0 mm | - | 8 W/m² | - |
| 1787699978 | 18.89° C | 86% | 1045.7 hPa | 0 mm | - | 15 W/m² | - |
| 1787699375 | 19.44° C | 85% | 1045.8 hPa | 0 mm | - | 22 W/m² | - |
| 1787698772 | 20° C | 84% | 1045.8 hPa | 0 mm | - | 27 W/m² | - |
| 1787698170 | 20.56° C | 80% | 1045.7 hPa | 0 mm | - | 33 W/m² | - |
| 1787697565 | 20.56° C | 83% | 1045.4 hPa | 0 mm | - | 46 W/m² | - |
| 1787696962 | 21.67° C | 79% | 1045.6 hPa | 0 mm | - | 52 W/m² | - |
| 1787696359 | 23.33° C | 72% | 1045.5 hPa | 0 mm | - | 196 W/m² | - |
| 1787695754 | 21.67° C | 80% | 1045.5 hPa | 0 mm | - | 60 W/m² | - |
| 1787695152 | 24.44° C | 75% | 1045.3 hPa | 0 mm | - | 48 W/m² | - |
| 1787694546 | 25° C | 67% | 1045.2 hPa | 0 mm | - | 306 W/m² | - |
| 1787693941 | 22.22° C | 78% | 1045.2 hPa | 0 mm | - | 337 W/m² | - |
| 1787693339 | 22.22° C | 80% | 1045.4 hPa | 0 mm | - | 114 W/m² | - |
* Rain latest hour (hover to see other rain measurements)
** Current wind speed in m/s (hover to see current wind gust speed)